Time;durP1;ratioP1;P1;durP2;ratioP2;P2;SDS_P1;SDS_P2;PMS_P1;PMS_P2;Temp;Humidity;BMP_temperature;BMP_pressure;BME280_temperature;BME280_humidity;BME280_pressure;Samples;Min_cycle;Max_cycle;Signal;HPM_P1;HPM_P2
2022/09/30 00:02:04;;;;;;;14.88;7.43;;;21.10;65.80;;;;;;5075991;28;20036;-81
2022/09/30 00:04:30;;;;;;;10.48;6.95;;;21.30;65.20;;;;;;5056828;28;20029;-82
2022/09/30 00:06:55;;;;;;;9.18;6.57;;;21.40;64.80;;;;;;5058261;28;20025;-82
2022/09/30 00:09:21;;;;;;;10.95;6.22;;;21.20;66.40;;;;;;5058657;28;20471;-87
2022/09/30 00:11:47;;;;;;;9.35;5.53;;;20.50;67.30;;;;;;5058648;28;20463;-83
2022/09/30 00:14:19;;;;;;;7.05;5.40;;;19.70;69.40;;;;;;5058168;28;20450;-83
2022/09/30 00:16:45;;;;;;;8.82;6.38;;;19.20;71.50;;;;;;5065620;28;20399;-84
2022/09/30 00:19:11;;;;;;;8.68;5.97;;;19.20;72.00;;;;;;5038570;28;20021;-84
2022/09/30 00:21:37;;;;;;;8.65;5.80;;;19.20;71.60;;;;;;5038279;28;20049;-86
2022/09/30 00:24:04;;;;;;;9.20;6.13;;;19.10;72.00;;;;;;5038802;28;20032;-84
2022/09/30 00:26:30;;;;;;;8.07;6.05;;;18.90;73.20;;;;;;5038461;28;20063;-85
2022/09/30 00:28:58;;;;;;;6.80;5.68;;;18.90;72.40;;;;;;5038399;28;20114;-84
2022/09/30 00:31:27;;;;;;;9.52;6.72;;;18.90;73.40;;;;;;5038128;28;20116;-83
2022/09/30 00:34:06;;;;;;;11.25;6.22;;;19.20;72.90;;;;;;5054811;28;20029;-81
2022/09/30 00:36:35;;;;;;;8.77;6.45;;;19.80;70.90;;;;;;5057263;28;20033;-85
2022/09/30 00:39:01;;;;;;;8.23;6.85;;;20.30;69.20;;;;;;5058071;28;20111;-83
2022/09/30 00:41:27;;;;;;;9.57;7.53;;;20.40;68.60;;;;;;5057928;28;20034;-85
2022/09/30 00:43:53;;;;;;;12.23;7.18;;;20.70;67.80;;;;;;5058092;28;20024;-85
2022/09/30 00:46:36;;;;;;;10.48;7.60;;;20.90;67.40;;;;;;5074388;28;20086;-84
2022/09/30 00:49:10;;;;;;;9.43;6.88;;;21.10;66.70;;;;;;5057934;28;20025;-85
2022/09/30 00:51:42;;;;;;;10.07;7.40;;;21.20;66.30;;;;;;5058053;28;20028;-84
2022/09/30 00:54:22;;;;;;;10.43;7.80;;;21.30;65.80;;;;;;5058444;28;20017;-85
2022/09/30 00:56:54;;;;;;;10.13;8.30;;;21.30;66.00;;;;;;5058076;28;20086;-84
2022/09/30 00:59:32;;;;;;;9.85;7.95;;;21.20;66.50;;;;;;5057940;28;20123;-93
2022/09/30 01:01:59;;;;;;;9.57;8.18;;;21.10;66.40;;;;;;5057724;28;20161;-84
2022/09/30 01:04:28;;;;;;;12.75;9.52;;;21.00;67.50;;;;;;5057232;28;20024;-85
2022/09/30 01:06:54;;;;;;;12.80;10.25;;;20.60;68.40;;;;;;5057721;28;20064;-85
2022/09/30 01:09:20;;;;;;;12.27;9.85;;;20.40;69.40;;;;;;5057239;28;20039;-85
2022/09/30 01:11:47;;;;;;;10.75;8.75;;;20.60;68.30;;;;;;5057778;28;20471;-86
2022/09/30 01:14:20;;;;;;;12.30;9.50;;;20.80;67.60;;;;;;5057465;28;20043;-85
2022/09/30 01:16:48;;;;;;;11.90;9.43;;;21.00;67.80;;;;;;5057225;28;20028;-86
2022/09/30 01:19:14;;;;;;;16.35;11.93;;;21.10;67.00;;;;;;5057986;28;20039;-84
2022/09/30 01:21:43;;;;;;;15.65;11.75;;;21.20;66.90;;;;;;5057295;28;20395;-85
2022/09/30 01:24:33;;;;;;;15.05;11.68;;;21.30;66.70;;;;;;5057375;28;20533;-88
2022/09/30 01:27:33;;;;;;;16.40;11.25;;;21.40;66.20;;;;;;5075030;28;20052;-82
2022/09/30 01:30:38;;;;;;;16.42;11.70;;;21.30;66.20;;;;;;5056400;28;20051;-83
2022/09/30 01:33:27;;;;;;;18.30;12.93;;;21.10;66.50;;;;;;5056846;28;20035;-82
2022/09/30 01:36:19;;;;;;;14.60;10.73;;;21.10;66.90;;;;;;4996355;28;20029;-82
2022/09/30 01:39:15;;;;;;;17.00;12.48;;;21.10;66.70;;;;;;5009160;28;20169;-82
2022/09/30 01:41:55;;;;;;;18.30;10.40;;;21.10;66.90;;;;;;4919617;29;20043;-83
2022/09/30 01:44:21;;;;;;;14.55;11.55;;;21.10;67.10;;;;;;4935471;29;20031;-83
2022/09/30 01:46:58;;;;;;;20.10;12.55;;;20.90;68.00;;;;;;4919818;29;20027;-83
2022/09/30 01:49:32;;;;;;;18.05;12.35;;;21.00;67.40;;;;;;4935133;29;20028;-83
2022/09/30 01:52:17;;;;;;;22.52;14.10;;;21.00;67.50;;;;;;4930645;29;20109;-82
2022/09/30 01:54:58;;;;;;;18.10;12.02;;;20.70;68.60;;;;;;4954606;29;20038;-83
2022/09/30 01:57:47;;;;;;;19.98;13.35;;;21.00;67.90;;;;;;4954182;29;20035;-82
2022/09/30 02:00:14;;;;;;;18.23;12.48;;;21.30;66.80;;;;;;4940517;29;20396;-82
2022/09/30 02:02:47;;;;;;;16.15;12.50;;;21.40;66.30;;;;;;4915923;29;20119;-82
2022/09/30 02:05:43;;;;;;;17.25;12.55;;;21.30;66.50;;;;;;4916245;29;20091;-83
2022/09/30 02:08:24;;;;;;;19.48;13.45;;;21.30;66.40;;;;;;4910640;29;20036;-83
2022/09/30 02:10:59;;;;;;;18.48;13.68;;;21.50;66.20;;;;;;4933647;29;20115;-83
2022/09/30 02:13:51;;;;;;;21.38;13.85;;;21.60;66.30;;;;;;4961203;28;20063;-82
2022/09/30 02:16:22;;;;;;;21.02;14.88;;;21.60;65.90;;;;;;4971042;28;20031;-80
2022/09/30 02:18:57;;;;;;;19.80;13.60;;;21.90;65.30;;;;;;5007739;28;20079;-82
2022/09/30 02:21:29;;;;;;;17.30;13.77;;;21.70;66.30;;;;;;5055670;28;20044;-82
2022/09/30 02:24:01;;;;;;;18.13;12.95;;;21.70;65.90;;;;;;5073710;28;20498;-82
2022/09/30 02:26:35;;;;;;;20.50;13.80;;;21.90;65.50;;;;;;5072826;28;20020;-82
2022/09/30 02:29:14;;;;;;;19.90;14.02;;;21.90;65.50;;;;;;5072830;28;20036;-82
2022/09/30 02:31:43;;;;;;;16.27;12.77;;;22.00;65.10;;;;;;5055315;28;20024;-84
2022/09/30 02:34:19;;;;;;;19.70;13.45;;;21.90;65.80;;;;;;5055540;28;20017;-83
2022/09/30 02:37:14;;;;;;;19.95;13.13;;;21.90;65.30;;;;;;5055005;28;20033;-82
2022/09/30 02:40:08;;;;;;;17.50;12.27;;;22.00;65.10;;;;;;5053810;28;20028;-82
2022/09/30 02:42:42;;;;;;;15.70;11.70;;;21.90;65.60;;;;;;5073775;28;20068;-83
2022/09/30 02:45:10;;;;;;;14.88;10.88;;;21.40;66.90;;;;;;5073284;28;20025;-83
2022/09/30 02:47:54;;;;;;;14.07;11.23;;;21.00;67.90;;;;;;5073325;28;20024;-83
2022/09/30 02:50:30;;;;;;;13.77;10.82;;;20.60;69.10;;;;;;5055861;28;20029;-82
2022/09/30 02:53:13;;;;;;;17.55;13.38;;;20.10;70.80;;;;;;5073437;28;20495;-83
2022/09/30 02:56:13;;;;;;;21.30;14.50;;;20.00;71.50;;;;;;5055028;28;20027;-84
2022/09/30 02:58:42;;;;;;;29.50;17.97;;;20.60;70.20;;;;;;5055341;28;20462;-81
2022/09/30 03:01:13;;;;;;;20.73;14.77;;;21.10;68.80;;;;;;5051469;28;20025;-84
2022/09/30 03:04:03;;;;;;;21.58;14.68;;;21.50;67.80;;;;;;5053081;28;20068;-81
2022/09/30 03:06:29;;;;;;;20.55;14.85;;;21.60;67.10;;;;;;5052180;28;20029;-83
2022/09/30 03:08:55;;;;;;;19.40;13.98;;;21.80;66.40;;;;;;5035351;28;20032;-82
2022/09/30 03:11:23;;;;;;;23.88;15.35;;;21.80;66.50;;;;;;5053234;28;20503;-84
2022/09/30 03:14:37;;;;;;;16.52;12.15;;;21.80;66.20;;;;;;5072734;28;20483;-83
2022/09/30 03:17:20;;;;;;;22.05;14.90;;;21.50;66.50;;;;;;4992185;28;20061;-84
2022/09/30 03:19:46;;;;;;;21.70;14.88;;;20.50;70.00;;;;;;4992313;28;20188;-84
2022/09/30 03:22:23;;;;;;;20.17;12.25;;;20.60;70.10;;;;;;4991722;28;20549;-84
2022/09/30 03:25:09;;;;;;;17.38;12.73;;;20.90;69.00;;;;;;4975830;28;20054;-84
2022/09/30 03:28:10;;;;;;;21.67;14.77;;;21.20;68.10;;;;;;4994677;28;20133;-83
2022/09/30 03:30:51;;;;;;;19.23;14.45;;;21.40;67.60;;;;;;4937962;29;20031;-83
2022/09/30 03:33:19;;;;;;;20.45;14.85;;;21.60;67.10;;;;;;4918501;28;20039;-84
2022/09/30 03:35:52;;;;;;;21.48;15.43;;;21.80;66.50;;;;;;4937703;29;20046;-83
2022/09/30 03:38:27;;;;;;;26.73;16.58;;;21.90;65.90;;;;;;4937226;29;20030;-84
2022/09/30 03:41:24;;;;;;;15.48;11.68;;;21.90;66.00;;;;;;4937781;29;20582;-83
2022/09/30 03:44:08;;;;;;;17.13;12.40;;;21.50;66.80;;;;;;4937246;29;20040;-83
2022/09/30 03:47:00;;;;;;;18.55;14.65;;;21.20;68.20;;;;;;4938055;29;20043;-84
2022/09/30 03:49:34;;;;;;;18.25;13.45;;;21.30;67.60;;;;;;4937490;29;20443;-83
2022/09/30 03:52:06;;;;;;;14.32;11.35;;;21.40;67.30;;;;;;4937835;29;20032;-84
2022/09/30 03:54:32;;;;;;;16.40;12.10;;;21.20;67.80;;;;;;5011643;28;20041;-83
2022/09/30 03:57:02;;;;;;;14.45;11.23;;;20.60;69.20;;;;;;4987959;28;20022;-84
2022/09/30 03:59:28;;;;;;;20.75;13.85;;;19.90;71.20;;;;;;4979125;28;20118;-86
2022/09/30 04:01:55;;;;;;;19.52;13.73;;;19.60;73.40;;;;;;4978954;28;20161;-83
2022/09/30 04:04:21;;;;;;;18.40;13.13;;;20.10;72.10;;;;;;4995246;28;20030;-83
2022/09/30 04:06:47;;;;;;;20.13;13.77;;;20.60;70.70;;;;;;4996218;28;20021;-83
2022/09/30 04:09:13;;;;;;;17.30;12.65;;;20.60;70.70;;;;;;5038605;28;20043;-85
2022/09/30 04:11:39;;;;;;;17.25;13.00;;;20.80;69.90;;;;;;5038458;28;20156;-83
2022/09/30 04:14:07;;;;;;;19.23;13.90;;;21.00;68.90;;;;;;5055028;28;20021;-83
2022/09/30 04:16:33;;;;;;;20.45;14.32;;;21.20;68.90;;;;;;5054962;28;20029;-82
2022/09/30 04:18:59;;;;;;;20.48;14.45;;;21.40;68.10;;;;;;5058066;28;20429;-84
2022/09/30 04:21:27;;;;;;;18.20;13.52;;;21.40;68.30;;;;;;5058115;28;20051;-83
2022/09/30 04:23:54;;;;;;;21.67;15.88;;;21.40;68.10;;;;;;5058233;28;20028;-83
2022/09/30 04:26:20;;;;;;;21.67;15.15;;;21.50;67.90;;;;;;5075737;28;20025;-83
2022/09/30 04:28:45;;;;;;;19.98;14.13;;;21.70;67.40;;;;;;5056204;28;20046;-84
2022/09/30 04:31:13;;;;;;;25.42;16.95;;;21.70;67.60;;;;;;5057871;28;20028;-84
2022/09/30 04:33:39;;;;;;;24.42;15.85;;;21.70;67.10;;;;;;5057971;28;20031;-84
2022/09/30 04:36:05;;;;;;;22.05;15.20;;;21.80;67.10;;;;;;5058338;28;20534;-83
2022/09/30 04:38:39;;;;;;;26.71;17.15;;;21.80;67.20;;;;;;4999970;28;10000984;-82
2022/09/30 04:41:06;;;;;;;18.65;14.57;;;21.90;66.80;;;;;;5057604;28;20721;-83
2022/09/30 04:43:33;;;;;;;26.67;17.45;;;21.90;66.90;;;;;;5055416;28;20138;-84
2022/09/30 04:45:59;;;;;;;21.30;15.40;;;21.80;67.40;;;;;;5041027;28;20507;-81
2022/09/30 04:48:26;;;;;;;21.45;15.13;;;21.80;67.10;;;;;;5075552;28;20532;-84
2022/09/30 04:50:52;;;;;;;24.90;16.38;;;21.70;67.70;;;;;;5056996;28;20017;-81
2022/09/30 04:53:19;;;;;;;22.30;15.55;;;21.70;67.70;;;;;;5057348;28;20474;-83
2022/09/30 04:55:45;;;;;;;22.10;15.77;;;21.70;67.80;;;;;;5057380;28;20035;-85
2022/09/30 04:58:11;;;;;;;25.65;16.48;;;21.80;67.80;;;;;;5075425;28;20468;-85
2022/09/30 05:00:37;;;;;;;21.83;15.18;;;22.00;67.30;;;;;;5056834;28;20031;-82
2022/09/30 05:03:03;;;;;;;18.65;14.00;;;22.00;67.10;;;;;;5054295;28;20046;-80
2022/09/30 05:05:29;;;;;;;23.35;15.05;;;22.10;67.00;;;;;;5058466;28;20205;-83
2022/09/30 05:08:03;;;;;;;18.67;13.73;;;22.20;66.90;;;;;;5071128;28;20026;-82
2022/09/30 05:10:28;;;;;;;23.05;15.25;;;22.00;67.20;;;;;;5056722;28;20029;-81
2022/09/30 05:12:55;;;;;;;20.35;14.98;;;21.80;68.20;;;;;;5066894;28;20040;-81
2022/09/30 05:15:21;;;;;;;17.35;13.48;;;21.70;68.60;;;;;;5069219;28;20059;-81
2022/09/30 05:17:50;;;;;;;17.27;12.88;;;21.60;69.00;;;;;;5052953;28;20024;-84
2022/09/30 05:20:16;;;;;;;23.90;15.70;;;21.60;69.20;;;;;;5051973;28;20060;-82
2022/09/30 05:22:42;;;;;;;21.70;13.95;;;21.80;68.80;;;;;;5064861;28;20081;-81
2022/09/30 05:25:08;;;;;;;21.90;14.80;;;21.90;68.50;;;;;;5059549;28;20379;-84
2022/09/30 05:27:33;;;;;;;20.30;14.18;;;22.00;68.40;;;;;;5056327;28;20033;-82
2022/09/30 05:29:59;;;;;;;19.80;13.68;;;22.10;68.00;;;;;;5056370;28;20031;-80
2022/09/30 05:32:25;;;;;;;14.80;11.93;;;22.10;68.10;;;;;;5074326;28;20023;-84
2022/09/30 05:34:51;;;;;;;15.85;12.35;;;21.70;68.90;;;;;;5056727;28;20024;-84
2022/09/30 05:37:17;;;;;;;19.08;14.10;;;21.50;69.50;;;;;;5066016;28;20108;-82
2022/09/30 05:39:43;;;;;;;17.60;13.27;;;21.60;69.80;;;;;;5064925;28;20032;-82
2022/09/30 05:42:08;;;;;;;19.02;13.85;;;21.90;69.00;;;;;;5045080;28;20032;-84
2022/09/30 05:44:34;;;;;;;25.90;15.60;;;22.20;68.00;;;;;;5060306;28;20471;-84
2022/09/30 05:47:00;;;;;;;18.85;14.07;;;22.30;67.50;;;;;;5064021;28;20017;-84
2022/09/30 05:49:25;;;;;;;20.10;14.10;;;22.50;67.50;;;;;;5039720;28;20119;-84
2022/09/30 05:51:52;;;;;;;21.95;14.75;;;22.60;67.20;;;;;;5052714;28;20112;-84
2022/09/30 05:54:17;;;;;;;20.67;15.05;;;22.70;66.80;;;;;;5054098;28;20025;-83
2022/09/30 05:56:43;;;;;;;21.63;14.57;;;22.60;67.00;;;;;;5074091;28;20036;-88
2022/09/30 05:59:09;;;;;;;18.88;14.23;;;22.50;67.20;;;;;;5054801;28;20478;-85
2022/09/30 06:01:35;;;;;;;22.50;14.90;;;22.40;67.60;;;;;;5072122;28;20032;-81
2022/09/30 06:04:01;;;;;;;25.52;16.67;;;22.40;67.80;;;;;;5057802;28;20036;-83
2022/09/30 06:06:27;;;;;;;23.35;16.13;;;22.40;67.90;;;;;;5045392;28;20021;-84
2022/09/30 06:08:53;;;;;;;21.90;14.95;;;22.60;67.90;;;;;;5036077;28;20032;-82
2022/09/30 06:11:22;;;;;;;23.23;15.63;;;22.60;67.20;;;;;;5063690;28;20025;-81
2022/09/30 06:13:48;;;;;;;22.95;14.52;;;22.60;67.40;;;;;;5043646;28;20471;-82
2022/09/30 06:16:15;;;;;;;20.73;14.30;;;22.60;67.50;;;;;;5040045;28;20046;-80
2022/09/30 06:18:41;;;;;;;19.80;13.82;;;22.50;67.70;;;;;;5054970;28;20017;-80
2022/09/30 06:21:10;;;;;;;22.10;14.45;;;22.40;67.90;;;;;;5044853;28;20046;-81
2022/09/30 06:23:35;;;;;;;19.23;13.38;;;22.40;68.00;;;;;;5052482;28;20059;-82
2022/09/30 06:26:03;;;;;;;17.90;12.95;;;22.40;68.10;;;;;;5054187;28;20395;-83
2022/09/30 06:28:29;;;;;;;16.95;13.60;;;22.50;67.60;;;;;;5069311;28;20134;-81
2022/09/30 06:30:55;;;;;;;23.95;15.88;;;22.50;67.70;;;;;;5058039;28;20115;-82
2022/09/30 06:33:21;;;;;;;18.50;13.60;;;22.60;67.90;;;;;;5062231;28;20021;-81
2022/09/30 06:35:47;;;;;;;22.85;16.52;;;22.70;67.30;;;;;;5067957;28;20017;-82
2022/09/30 06:38:16;;;;;;;17.92;14.10;;;22.70;67.40;;;;;;5038102;28;20068;-83
2022/09/30 06:40:43;;;;;;;23.93;15.83;;;22.80;67.20;;;;;;4689471;28;10000199;-81
2022/09/30 06:43:10;;;;;;;20.73;14.70;;;22.80;66.90;;;;;;5042050;28;20032;-82
2022/09/30 06:45:36;;;;;;;19.90;14.20;;;22.80;67.20;;;;;;4695856;28;9999733;-83
2022/09/30 06:48:04;;;;;;;20.17;14.48;;;22.70;67.40;;;;;;5033689;28;20265;-83
2022/09/30 06:50:31;;;;;;;27.30;16.95;;;22.70;67.50;;;;;;5034029;28;20075;-83
2022/09/30 06:52:58;;;;;;;24.83;16.88;;;22.80;67.30;;;;;;5052108;28;20047;-84
2022/09/30 06:55:25;;;;;;;26.98;18.58;;;22.80;67.20;;;;;;5056109;28;20464;-84
2022/09/30 06:57:52;;;;;;;25.90;17.73;;;22.90;67.10;;;;;;5049422;28;20024;-84
2022/09/30 07:00:18;;;;;;;28.52;18.42;;;23.00;66.70;;;;;;5046112;28;20029;-83
2022/09/30 07:02:44;;;;;;;24.80;17.63;;;22.90;66.70;;;;;;5056667;28;20037;-83
2022/09/30 07:05:10;;;;;;;25.48;17.60;;;22.90;67.00;;;;;;5060025;28;20376;-85
2022/09/30 07:07:36;;;;;;;31.15;19.30;;;22.90;67.10;;;;;;5064130;28;20055;-84
2022/09/30 07:10:03;;;;;;;23.83;16.52;;;22.90;67.10;;;;;;5057714;28;20032;-82
2022/09/30 07:12:29;;;;;;;29.35;17.40;;;22.90;66.90;;;;;;5057935;28;20029;-83
2022/09/30 07:14:55;;;;;;;23.45;16.42;;;22.90;67.10;;;;;;5059015;28;20464;-84
2022/09/30 07:17:21;;;;;;;23.33;15.35;;;22.90;66.90;;;;;;5039298;28;20449;-83
2022/09/30 07:19:47;;;;;;;23.30;15.95;;;22.90;67.10;;;;;;5044599;28;20115;-86
2022/09/30 07:22:33;;;;;;;22.15;16.33;;;22.80;67.60;;;;;;5050075;28;20444;-85
2022/09/30 07:25:00;;;;;;;22.92;16.08;;;22.70;67.60;;;;;;5046208;28;20035;-86
2022/09/30 07:27:27;;;;;;;30.00;17.88;;;22.70;68.00;;;;;;5043398;28;20087;-85
2022/09/30 07:29:53;;;;;;;27.02;17.70;;;22.70;67.90;;;;;;5054748;28;20017;-83
2022/09/30 07:32:20;;;;;;;27.65;17.52;;;22.90;67.60;;;;;;5053864;28;20025;-88
2022/09/30 07:34:46;;;;;;;26.63;17.38;;;22.90;67.60;;;;;;5037296;28;20026;-83
2022/09/30 07:37:15;;;;;;;25.50;17.63;;;23.00;67.10;;;;;;5047047;28;20044;-87
2022/09/30 07:39:43;;;;;;;26.48;17.83;;;23.00;67.10;;;;;;5045049;28;20032;-83
2022/09/30 07:42:10;;;;;;;24.60;16.98;;;23.10;66.90;;;;;;5043021;28;20032;-86
2022/09/30 07:44:40;;;;;;;26.85;17.98;;;23.10;67.30;;;;;;5051239;28;20383;-83
2022/09/30 07:47:06;;;;;;;;;;;23.00;67.50;;;;;;5055192;28;20361;-82
2022/09/30 07:49:33;;;;;;;21.98;16.23;;;23.10;67.10;;;;;;5056625;28;19904;-86
2022/09/30 07:51:59;;;;;;;26.67;17.90;;;23.20;67.00;;;;;;5053941;28;20017;-87
2022/09/30 07:54:28;;;;;;;29.08;18.55;;;23.20;67.10;;;;;;5055398;28;20031;-82
2022/09/30 07:56:55;;;;;;;28.25;18.33;;;23.30;66.80;;;;;;5055491;28;20029;-84
2022/09/30 07:59:21;;;;;;;22.65;16.58;;;23.40;66.70;;;;;;5054579;28;20033;-84
2022/09/30 08:01:48;;;;;;;24.02;16.17;;;23.40;66.50;;;;;;5050921;28;20025;-84
2022/09/30 08:04:16;;;;;;;26.92;17.50;;;23.30;67.10;;;;;;5041086;28;20108;-89
2022/09/30 08:06:45;;;;;;;18.95;14.13;;;23.30;67.10;;;;;;5044079;28;20040;-81
2022/09/30 08:09:13;;;;;;;18.10;13.25;;;23.20;67.20;;;;;;5038388;28;20076;-81
2022/09/30 08:11:40;;;;;;;20.08;13.52;;;22.80;67.80;;;;;;5050231;28;20102;-83
2022/09/30 08:14:06;;;;;;;21.73;14.30;;;22.60;69.30;;;;;;5041137;28;20501;-83
2022/09/30 08:16:31;;;;;;;15.02;11.70;;;22.60;69.10;;;;;;5056250;28;20033;-83
2022/09/30 08:19:00;;;;;;;22.00;14.20;;;22.40;69.90;;;;;;5056345;28;20056;-82
2022/09/30 08:21:27;;;;;;;20.33;14.07;;;22.20;70.80;;;;;;5043380;28;20041;-83
2022/09/30 08:23:53;;;;;;;26.27;18.92;;;22.40;70.30;;;;;;5034890;28;20396;-82
2022/09/30 08:26:19;;;;;;;22.70;16.38;;;22.70;70.00;;;;;;5047021;28;20021;-84
2022/09/30 08:28:48;;;;;;;19.80;14.55;;;22.90;69.20;;;;;;5054901;28;20032;-83
2022/09/30 08:31:19;;;;;;;26.80;20.17;;;23.10;69.00;;;;;;5055095;28;20040;-80
2022/09/30 08:33:46;;;;;;;25.02;19.33;;;23.30;68.70;;;;;;5053394;28;20036;-81
2022/09/30 08:36:17;;;;;;;22.20;15.20;;;23.40;68.30;;;;;;5041978;28;20025;-79
2022/09/30 08:38:43;;;;;;;19.60;15.27;;;23.60;67.90;;;;;;5049851;28;20032;-84
2022/09/30 08:41:37;;;;;;;19.13;14.95;;;23.70;67.50;;;;;;5045408;28;20420;-85
2022/09/30 08:44:23;;;;;;;17.35;12.38;;;23.70;67.30;;;;;;5035601;28;20029;-83
2022/09/30 08:47:01;;;;;;;18.00;13.32;;;23.60;67.50;;;;;;5048041;28;20029;-84
2022/09/30 08:49:43;;;;;;;15.15;10.45;;;23.50;67.40;;;;;;5042005;28;20025;-86
2022/09/30 08:52:19;;;;;;;14.88;10.90;;;23.50;67.50;;;;;;5047398;28;20036;-82
2022/09/30 08:54:49;;;;;;;12.32;9.57;;;23.60;67.50;;;;;;5050745;28;20069;-84
2022/09/30 08:57:15;;;;;;;11.98;8.95;;;23.70;67.70;;;;;;5055486;28;20021;-83
2022/09/30 08:59:56;;;;;;;11.25;8.48;;;23.70;67.40;;;;;;5054993;28;20549;-84
2022/09/30 09:02:28;;;;;;;11.43;8.27;;;23.80;67.20;;;;;;5054163;28;20551;-84
2022/09/30 09:04:58;;;;;;;9.20;7.35;;;23.70;67.00;;;;;;5054754;28;20100;-83
2022/09/30 09:07:51;;;;;;;9.38;7.85;;;23.60;67.80;;;;;;5053912;28;20063;-83
2022/09/30 09:10:29;;;;;;;13.43;10.23;;;23.50;68.00;;;;;;5052622;28;20100;-83
2022/09/30 09:13:05;;;;;;;10.90;8.13;;;23.70;67.90;;;;;;5053780;28;20369;-83
2022/09/30 09:15:46;;;;;;;9.13;7.38;;;23.80;67.50;;;;;;5054796;28;20408;-83
2022/09/30 09:18:21;;;;;;;;;;;24.00;67.30;;;;;;5055078;28;20029;-83
2022/09/30 09:21:08;;;;;;;11.25;7.68;;;24.00;67.60;;;;;;5053493;28;19976;-82
2022/09/30 09:23:34;;;;;;;9.07;6.93;;;24.20;67.00;;;;;;5053231;28;20049;-82
2022/09/30 09:26:00;;;;;;;10.00;8.30;;;24.10;67.60;;;;;;5053883;28;20021;-83
2022/09/30 09:29:07;;;;;;;10.05;7.95;;;24.00;68.20;;;;;;5055071;28;20031;-82
2022/09/30 09:31:33;;;;;;;10.70;8.15;;;23.90;67.80;;;;;;4977133;28;20106;-84
2022/09/30 09:34:07;;;;;;;9.32;6.50;;;23.70;69.00;;;;;;4288573;28;10000654;-84
2022/09/30 09:36:44;;;;;;;10.25;7.43;;;23.70;68.70;;;;;;4993207;28;20060;-83
2022/09/30 09:39:40;;;;;;;8.55;6.30;;;23.80;68.90;;;;;;4976175;28;20073;-85
2022/09/30 09:42:37;;;;;;;6.53;5.53;;;23.90;67.90;;;;;;4976749;28;20046;-85
2022/09/30 09:45:16;;;;;;;6.43;4.95;;;23.90;68.00;;;;;;4992864;28;20038;-84
2022/09/30 09:47:46;;;;;;;9.70;7.28;;;23.90;67.70;;;;;;4993113;28;20022;-84
2022/09/30 09:50:54;;;;;;;7.03;5.20;;;23.80;68.50;;;;;;4993030;28;20121;-85
2022/09/30 09:53:46;;;;;;;9.82;8.07;;;23.90;68.40;;;;;;4900250;29;20043;-85
2022/09/30 09:56:17;;;;;;;9.32;7.70;;;23.80;68.70;;;;;;4916226;29;20039;-86
2022/09/30 09:59:05;;;;;;;6.90;5.15;;;23.90;68.60;;;;;;4916085;29;20032;-85
2022/09/30 10:01:37;;;;;;;8.38;6.03;;;23.90;68.10;;;;;;4916294;29;20503;-86
2022/09/30 10:04:08;;;;;;;6.63;5.30;;;23.90;68.40;;;;;;4916120;29;20044;-86
2022/09/30 10:07:07;;;;;;;7.75;5.78;;;23.90;68.40;;;;;;4900753;29;20404;-86
2022/09/30 10:09:34;;;;;;;7.70;5.70;;;23.80;68.80;;;;;;4949133;29;20039;-87
2022/09/30 10:12:06;;;;;;;11.57;8.77;;;23.80;68.40;;;;;;4954661;29;20117;-87
2022/09/30 10:14:34;;;;;;;7.38;6.00;;;24.10;67.90;;;;;;4954398;29;20397;-88
2022/09/30 10:17:02;;;;;;;7.80;6.18;;;24.20;67.30;;;;;;4938244;29;20134;-87
2022/09/30 10:19:31;;;;;;;8.75;6.57;;;24.20;67.80;;;;;;4954004;29;20027;-88
2022/09/30 10:22:10;;;;;;;7.93;6.07;;;24.30;68.40;;;;;;4953680;29;20078;-83
2022/09/30 10:24:37;;;;;;;10.05;8.13;;;24.40;67.30;;;;;;4953796;29;20064;-85
2022/09/30 10:27:03;;;;;;;8.30;6.38;;;24.30;67.50;;;;;;4954026;29;20023;-86
2022/09/30 10:29:32;;;;;;;9.43;6.22;;;24.40;67.50;;;;;;4986509;28;20038;-87
2022/09/30 10:31:59;;;;;;;15.23;12.18;;;24.60;67.40;;;;;;5032609;28;20021;-88
2022/09/30 10:34:39;;;;;;;7.43;5.80;;;24.60;68.00;;;;;;5032541;28;20025;-83
2022/09/30 10:37:15;;;;;;;11.75;10.43;;;24.70;67.50;;;;;;5032075;28;20030;-92
2022/09/30 10:40:00;;;;;;;6.97;5.80;;;24.90;66.60;;;;;;5032924;28;20112;-88
2022/09/30 10:42:33;;;;;;;8.63;6.70;;;24.70;67.50;;;;;;5032683;28;20034;-91
2022/09/30 10:45:19;;;;;;;8.10;6.50;;;24.80;67.50;;;;;;5033467;28;20353;-93
2022/09/30 10:48:09;;;;;;;12.30;11.10;;;24.90;67.00;;;;;;5035494;28;20028;-91
2022/09/30 10:50:35;;;;;;;6.95;6.25;;;25.20;67.20;;;;;;5020918;28;20025;-91
2022/09/30 10:53:10;;;;;;;7.38;6.10;;;25.40;68.20;;;;;;5032899;28;20025;-90
2022/09/30 10:55:44;;;;;;;8.93;5.35;;;25.50;67.80;;;;;;5033891;28;20060;-85
2022/09/30 10:58:27;;;;;;;8.48;4.97;;;25.30;67.50;;;;;;5033096;28;20431;-93
2022/09/30 11:01:48;;;;;;;5.45;4.40;;;25.40;66.60;;;;;;5033172;28;20117;-95
2022/09/30 11:04:54;;;;;;;5.90;5.05;;;25.10;66.90;;;;;;4954050;29;20138;-91
2022/09/30 11:07:38;;;;;;;5.53;4.30;;;24.70;66.60;;;;;;4952895;29;20560;-88
2022/09/30 11:10:18;;;;;;;5.65;4.95;;;24.30;67.70;;;;;;4954115;29;20475;-93
2022/09/30 11:12:52;;;;;;;9.50;8.32;;;24.40;67.60;;;;;;4953512;29;20027;-89
2022/09/30 11:15:24;;;;;;;9.30;8.30;;;24.40;68.20;;;;;;4953447;29;20422;-84
2022/09/30 11:18:15;;;;;;;7.72;6.93;;;24.50;67.40;;;;;;4953274;29;20035;-84
2022/09/30 11:20:46;;;;;;;;;;;24.40;67.90;;;;;;4953717;29;20055;-86
2022/09/30 11:24:17;;;;;;;6.05;4.80;;;24.50;68.00;;;;;;4953392;29;19918;-87
2022/09/30 11:26:56;;;;;;;5.00;4.40;;;24.70;67.70;;;;;;4896327;29;20121;-85
2022/09/30 11:29:36;;;;;;;6.85;5.78;;;24.70;67.50;;;;;;4896147;29;20421;-85
2022/09/30 11:32:10;;;;;;;7.68;6.50;;;24.70;67.80;;;;;;4896137;29;20514;-85
2022/09/30 11:34:36;;;;;;;5.45;4.22;;;24.70;66.90;;;;;;4895959;29;20048;-87
2022/09/30 11:37:23;;;;;;;5.80;4.75;;;24.70;66.80;;;;;;4896235;29;20477;-91
2022/09/30 11:40:20;;;;;;;4.78;3.65;;;24.70;67.40;;;;;;4944027;28;20034;-87
2022/09/30 11:42:58;;;;;;;4.60;3.72;;;24.50;67.50;;;;;;4975425;28;20472;-85
2022/09/30 11:45:34;;;;;;;4.05;3.22;;;24.20;67.60;;;;;;4975915;28;20066;-81
2022/09/30 11:48:19;;;;;;;4.82;3.80;;;24.10;68.10;;;;;;4977127;28;20537;-86
2022/09/30 11:50:52;;;;;;;4.15;3.33;;;23.70;68.60;;;;;;4979503;28;20026;-86
2022/09/30 11:53:29;;;;;;;9.05;6.70;;;23.80;69.00;;;;;;4978976;28;20141;-86
2022/09/30 11:56:09;;;;;;;12.55;9.98;;;23.60;68.90;;;;;;4979565;28;20094;-82
2022/09/30 11:58:44;;;;;;;4.90;3.78;;;23.40;69.60;;;;;;5033709;28;20030;-87
2022/09/30 12:01:32;;;;;;;6.32;4.10;;;22.90;70.30;;;;;;5035744;28;20037;-89
2022/09/30 12:04:20;;;;;;;5.28;4.13;;;22.80;70.70;;;;;;5035455;28;20095;-87
2022/09/30 12:07:20;;;;;;;5.47;3.92;;;22.80;71.00;;;;;;5035622;28;20021;-84
2022/09/30 12:10:06;;;;;;;6.80;4.20;;;23.20;70.00;;;;;;5024799;28;20049;-84
2022/09/30 12:12:32;;;;;;;4.70;4.00;;;23.50;70.40;;;;;;5035043;28;20112;-86
2022/09/30 12:15:04;;;;;;;5.93;3.15;;;23.80;69.70;;;;;;5035440;28;20079;-82
2022/09/30 12:17:37;;;;;;;3.67;2.70;;;24.10;69.00;;;;;;5035291;28;20518;-85
2022/09/30 12:20:29;;;;;;;3.75;2.88;;;24.20;68.10;;;;;;5034949;28;20038;-85
2022/09/30 12:23:16;;;;;;;4.47;3.50;;;24.20;66.70;;;;;;5024426;28;20046;-84
2022/09/30 12:25:49;;;;;;;3.72;2.97;;;24.00;67.70;;;;;;5034978;28;20048;-86
2022/09/30 12:31:40;;;;;;;4.03;2.37;;;23.80;68.00;;;;;;5035993;28;20056;-84
2022/09/30 12:34:24;;;;;;;;;;;23.60;68.50;;;;;;5035125;28;20083;-83
2022/09/30 12:37:12;;;;;;;4.63;3.42;;;23.70;68.70;;;;;;5034760;28;19909;-84
2022/09/30 12:39:49;;;;;;;8.77;7.22;;;23.70;68.40;;;;;;5034629;28;20061;-82
2022/09/30 12:42:17;;;;;;;6.32;4.55;;;23.70;68.50;;;;;;5034417;28;20034;-83
2022/09/30 12:45:19;;;;;;;8.52;5.93;;;24.10;67.50;;;;;;5034494;28;20044;-81
2022/09/30 12:47:52;;;;;;;9.10;6.65;;;24.30;66.70;;;;;;5034458;28;20033;-84
2022/09/30 12:50:22;;;;;;;6.45;4.60;;;24.40;66.80;;;;;;5034860;28;20026;-87
2022/09/30 12:52:49;;;;;;;5.50;3.78;;;24.20;67.00;;;;;;5034539;28;20469;-83
2022/09/30 12:55:40;;;;;;;8.23;5.65;;;24.10;66.90;;;;;;5034242;28;20426;-85
2022/09/30 12:58:15;;;;;;;16.90;10.05;;;24.00;66.90;;;;;;5039018;28;20473;-85
2022/09/30 13:00:56;;;;;;;12.35;8.02;;;23.90;67.00;;;;;;5033243;28;20065;-82
2022/09/30 13:03:23;;;;;;;14.30;8.60;;;23.90;67.50;;;;;;5033965;28;20068;-82
2022/09/30 13:05:55;;;;;;;6.53;4.55;;;23.90;67.60;;;;;;5034034;28;20022;-85
2022/09/30 13:08:31;;;;;;;6.53;4.03;;;23.90;67.00;;;;;;5033875;28;20033;-86
2022/09/30 13:11:05;;;;;;;5.40;3.90;;;23.80;66.10;;;;;;5035358;28;20021;-84
2022/09/30 13:13:33;;;;;;;6.55;3.92;;;23.50;66.30;;;;;;5033905;28;20021;-89